Castle Rock, South Dakota
Current Conditions -  °F | °C
As of 6:55 PM on Saturday 25 Oct 2014 (Local Time) from KSPF Reporting Station
Clear Clear  
Wind Chill: 52°   Ceiling: Unl
Heat Index: 52°   Visibility: 10mi
Dew Point: 37°   Wind: 5mph
Humidity: 58%   Direction: 220°SW
Pressure: 29.91"   Gusts: NA
Location:  44.9094°N, 103.193°W
Report Text: KSPF 260055Z AUTO 22004KT 10SM CLR 11/03 A2991 RMK AO2
Loading
Personal Weather Stations






























Interactive Weather Map
Tropical Storm Tracking
New forecast layout! Learn more

10-Day Weather Forecast

Advertisements
Track Severe Weather on mobile